KBLM/BLM METAR and TAF weather

Enter ICAO airport designator
Station Type Date Time Source
KBLM METAR 2018/01/23 00:56 UTC NOAA

KBLM 230056Z AUTO 07004KT 10SM CLR 05/04 A3011 RMK AO2 SLP202 T00500039


Station Type Date Time Source
KBLM Decoded METAR 2018/01/23 00:56 UTC NOAA

Belmar-Farmingdale, NJ, United States (KBLM) 40-11N 074-08W
Jan 22, 2018 - 07:56 PM EST / 2018.01.23 0056 UTC
Wind: from the ENE (070 degrees) at 5 MPH (4 KT):0
Visibility: 10 mile(s):0
Sky conditions: clear
Temperature: 41.0 F (5.0 C)
Dew Point: 39.0 F (3.9 C)
Relative Humidity: 92%
Pressure (altimeter): 30.11 in. Hg (1019 hPa)
ob: KBLM 230056Z AUTO 07004KT 10SM CLR 05/04 A3011 RMK AO2 SLP202 T00500039
cycle: 1

Station Type Date Time Source
KBLM TAF UTC NOAA

Error!


Example: see airport list